Time;durP1;ratioP1;P1;durP2;ratioP2;P2;SDS_P1;SDS_P2;PMS_P1;PMS_P2;Temp;Humidity;BMP_temperature;BMP_pressure;BME280_temperature;BME280_humidity;BME280_pressure;Samples;Min_cycle;Max_cycle;Signal;HPM_P1;HPM_P2
2024/04/13 00:00:06;;;;;;;5.00;3.40;;;;;;;12.17;100.00;101984.59;5324181;26;20241;-71
2024/04/13 00:03:09;;;;;;;3.23;2.93;;;;;;;12.18;100.00;101974.78;5349257;26;20250;-71
2024/04/13 00:05:42;;;;;;;5.23;3.20;;;;;;;12.19;100.00;101976.34;5346161;26;20250;-71
2024/04/13 00:08:15;;;;;;;4.50;2.97;;;;;;;12.19;100.00;101979.00;5344408;26;20365;-71
2024/04/13 00:13:52;;;;;;;4.17;2.90;;;;;;;12.22;100.00;101978.41;5335384;26;20230;-71
2024/04/13 00:16:34;;;;;;;6.80;3.70;;;;;;;12.22;100.00;101989.75;5316934;26;20258;-71
2024/04/13 00:19:18;;;;;;;3.90;3.10;;;;;;;12.22;100.00;101978.41;5316744;26;20235;-71
2024/04/13 00:22:42;;;;;;;4.67;2.80;;;;;;;12.22;100.00;101978.41;5343570;26;20247;-71
2024/04/13 00:25:17;;;;;;;3.77;3.00;;;;;;;12.21;100.00;101982.13;5292221;26;20238;-71
2024/04/13 00:31:14;;;;;;;5.07;3.23;;;;;;;12.17;100.00;101981.16;5300749;26;20229;-71
2024/04/13 00:34:07;;;;;;;3.23;2.93;;;;;;;12.14;100.00;101982.56;5350651;26;20270;-71
2024/04/13 00:37:30;;;;;;;3.23;2.93;;;;;;;12.12;100.00;101979.41;5344965;26;20342;-71
2024/04/13 00:39:59;;;;;;;3.30;3.00;;;;;;;12.10;100.00;101970.19;5365210;26;20284;-71
2024/04/13 00:46:16;;;;;;;4.57;2.87;;;;;;;12.01;100.00;101974.69;5339217;26;20709;-71
2024/04/13 00:49:00;;;;;;;4.50;2.93;;;;;;;11.99;100.00;101976.81;5337756;26;20308;-71
2024/04/13 00:51:41;;;;;;;8.57;3.10;;;;;;;11.95;100.00;101981.19;5333628;26;20235;-71
2024/04/13 00:54:20;;;;;;;4.47;3.23;;;;;;;11.92;100.00;101984.41;5341808;26;20380;-72
2024/04/13 00:57:27;;;;;;;3.20;2.90;;;;;;;11.89;100.00;101979.69;5350372;26;20287;-71
2024/04/13 01:00:22;;;;;;;4.67;3.13;;;;;;;11.86;100.00;101986.38;5331123;26;20297;-71
2024/04/13 01:03:03;;;;;;;4.57;3.27;;;;;;;11.83;100.00;101984.34;5346488;26;20318;-71
2024/04/13 01:05:58;;;;;;;5.43;3.10;;;;;;;11.80;100.00;101992.09;5346987;26;20242;-71
2024/04/13 01:08:34;;;;;;;4.03;3.00;;;;;;;11.78;100.00;101989.75;5366880;26;20271;-71
2024/04/13 01:11:26;;;;;;;4.23;3.43;;;;;;;11.75;100.00;101982.41;5347051;26;20235;-71
2024/04/13 01:14:26;;;;;;;3.50;3.20;;;;;;;11.73;100.00;101995.16;5331242;26;20351;-71
2024/04/13 01:20:08;;;;;;;4.53;3.60;;;;;;;11.68;100.00;101973.31;5352269;26;20257;-71
2024/04/13 01:22:41;;;;;;;4.10;3.20;;;;;;;11.67;100.00;101974.38;5356279;26;20283;-71
2024/04/13 01:25:41;;;;;;;4.93;3.63;;;;;;;11.67;100.00;101967.25;5343392;26;20245;-71
2024/04/13 01:28:17;;;;;;;4.70;3.67;;;;;;;11.67;100.00;101971.75;5336291;26;20268;-71
2024/04/13 01:30:58;;;;;;;5.03;3.97;;;;;;;11.66;100.00;101963.03;5344449;26;20234;-71
2024/04/13 01:40:09;;;;;;;7.30;3.80;;;;;;;11.68;100.00;101966.16;5290706;26;20233;-71
2024/04/13 01:43:18;;;;;;;5.30;3.97;;;;;;;11.69;100.00;101959.00;5264508;26;20241;-71
2024/04/13 01:46:03;;;;;;;4.00;3.40;;;;;;;11.70;100.00;101958.69;5295377;26;20284;-71
2024/04/13 01:48:42;;;;;;;;;;;;;;;;;;;;;
2024/04/13 01:57:29;;;;;;;5.47;3.73;;;;;;;11.74;100.00;101962.31;5323225;26;20755;-71
2024/04/13 01:59:55;;;;;;;4.83;3.47;;;;;;;11.73;100.00;101971.34;5343229;26;20250;-71
2024/04/13 02:02:40;;;;;;;10.67;3.80;;;;;;;11.74;100.00;101969.50;5348948;26;20235;-71
2024/04/13 02:08:36;;;;;;;4.27;3.87;;;;;;;11.74;100.00;101972.13;5338187;26;20597;-71
2024/04/13 02:11:06;;;;;;;4.63;3.80;;;;;;;11.72;100.00;101958.41;5344876;26;20616;-71
2024/04/13 02:13:38;;;;;;;6.50;3.97;;;;;;;11.69;100.00;101957.13;5351603;26;20249;-71
2024/04/13 02:16:32;;;;;;;6.37;4.10;;;;;;;11.71;100.00;101959.50;5345910;26;20241;-71
2024/04/13 02:19:35;;;;;;;5.17;3.80;;;;;;;11.69;100.00;101949.19;5315958;26;20337;-71
2024/04/13 02:22:12;;;;;;;4.73;3.77;;;;;;;11.69;100.00;101949.19;5343317;26;20233;-71
2024/04/13 02:25:14;;;;;;;5.00;4.40;;;;;;;11.67;100.00;101964.59;5348967;26;20216;-71
2024/04/13 02:27:48;;;;;;;7.87;4.00;;;;;;;11.68;100.00;101968.00;5348865;26;20262;-71
2024/04/13 02:30:38;;;;;;;4.20;3.70;;;;;;;11.66;100.00;101960.41;5356207;26;20323;-71
2024/04/13 02:36:25;;;;;;;7.33;4.20;;;;;;;11.64;100.00;101957.25;5245995;27;20282;-71
2024/04/13 02:39:13;;;;;;;4.03;3.63;;;;;;;11.63;100.00;101962.84;5233130;27;20846;-71
2024/04/13 02:45:47;;;;;;;;;;;;;;;;;;;;;
2024/04/13 02:48:39;;;;;;;5.47;3.80;;;;;;;11.60;100.00;101956.28;5162223;27;20813;-71
2024/04/13 02:51:56;;;;;;;4.23;3.67;;;;;;;11.60;100.00;101961.56;5172048;27;20782;-71
2024/04/13 02:55:04;;;;;;;5.70;4.10;;;;;;;11.59;100.00;101956.59;5245763;26;20283;-71
2024/04/13 02:58:05;;;;;;;8.77;3.67;;;;;;;11.57;100.00;101958.72;5275591;26;20246;-71
2024/04/13 03:03:38;;;;;;;5.03;3.70;;;;;;;11.54;100.00;101957.44;5333898;26;20231;-71
2024/04/13 03:06:11;;;;;;;5.53;4.10;;;;;;;11.53;100.00;101955.09;5323767;26;20778;-71
2024/04/13 03:08:55;;;;;;;5.93;3.80;;;;;;;11.50;100.00;101955.69;5359674;26;20498;-71
2024/04/13 03:11:32;;;;;;;5.30;4.20;;;;;;;11.50;100.00;101947.75;5350155;26;20274;-71
2024/04/13 03:14:41;;;;;;;8.60;4.70;;;;;;;11.49;100.00;101954.13;5351800;26;20798;-71
2024/04/13 03:17:13;;;;;;;4.73;3.40;;;;;;;11.48;100.00;101944.63;5341752;26;20733;-71
2024/04/13 03:19:59;;;;;;;6.93;3.93;;;;;;;11.47;100.00;101948.34;5362025;26;20284;-71
2024/04/13 03:23:00;;;;;;;7.30;4.17;;;;;;;11.45;100.00;101946.00;5359360;26;20292;-71
2024/04/13 03:25:41;;;;;;;8.60;3.90;;;;;;;11.45;100.00;101943.34;5309477;26;20274;-71
2024/04/13 03:28:10;;;;;;;5.33;4.40;;;;;;;11.46;100.00;101941.50;5327279;26;20254;-71
2024/04/13 03:31:27;;;;;;;;;;;;;;;;;;;;;
2024/04/13 03:35:09;;;;;;;;;;;;;;;;;;;;;
2024/04/13 03:38:02;;;;;;;7.10;4.00;;;;;;;11.45;100.00;101946.00;5325470;26;20245;-71
2024/04/13 03:40:54;;;;;;;5.23;3.73;;;;;;;11.45;100.00;101945.22;5354301;26;20250;-71
2024/04/13 03:47:08;;;;;;;;;;;;;;;;;;;;;
2024/04/13 03:49:41;;;;;;;5.53;4.67;;;;;;;11.45;100.00;101935.41;5334241;26;20518;-71
2024/04/13 03:52:18;;;;;;;6.27;4.27;;;;;;;11.46;100.00;101933.56;5346145;26;20240;-71
2024/04/13 03:58:14;;;;;;;9.30;5.00;;;;;;;11.47;100.00;101940.41;5341683;26;20232;-71
2024/04/13 04:00:50;;;;;;;6.93;4.50;;;;;;;11.46;100.00;101938.84;5303831;26;20598;-71
2024/04/13 04:03:31;;;;;;;8.93;4.43;;;;;;;11.46;100.00;101941.50;5366647;26;20361;-71
2024/04/13 04:09:13;;;;;;;8.97;4.77;;;;;;;11.44;100.00;101947.06;5324547;26;20234;-71
2024/04/13 04:12:06;;;;;;;4.73;4.03;;;;;;;11.46;100.00;101941.50;5354883;26;20254;-71
2024/04/13 04:14:54;;;;;;;5.50;4.30;;;;;;;11.48;100.00;101944.63;5345743;26;20290;-71
2024/04/13 04:17:41;;;;;;;4.90;4.40;;;;;;;11.49;100.00;101940.91;5338410;26;20251;-71
2024/04/13 04:20:44;;;;;;;7.13;4.33;;;;;;;11.51;100.00;101941.38;5339388;26;20244;-71
2024/04/13 04:23:53;;;;;;;7.87;4.80;;;;;;;11.52;100.00;101946.38;5326718;26;20792;-71
2024/04/13 04:26:33;;;;;;;6.27;5.03;;;;;;;11.52;100.00;101951.69;5345086;26;20283;-71
2024/04/13 04:29:11;;;;;;;7.40;4.43;;;;;;;11.53;100.00;101947.94;5335442;26;20807;-71
2024/04/13 04:32:00;;;;;;;5.57;4.03;;;;;;;11.55;100.00;101948.41;5347563;26;20762;-71
2024/04/13 04:34:39;;;;;;;4.80;4.00;;;;;;;11.57;100.00;101948.91;5352893;26;20244;-71
2024/04/13 04:37:30;;;;;;;8.50;4.70;;;;;;;11.60;100.00;101947.56;5353553;26;20244;-71
2024/04/13 04:40:38;;;;;;;8.73;4.50;;;;;;;11.63;100.00;101946.97;5310296;26;20240;-71
2024/04/13 04:43:18;;;;;;;5.73;4.43;;;;;;;11.65;100.00;101953.50;5328937;26;20288;-71
2024/04/13 04:46:41;;;;;;;5.90;4.53;;;;;;;11.67;100.00;101943.44;5360860;26;20275;-71
2024/04/13 04:50:06;;;;;;;5.10;4.57;;;;;;;11.71;100.00;101956.84;5343411;26;20238;-71
2024/04/13 04:53:03;;;;;;;7.97;5.13;;;;;;;11.76;100.00;101954.84;5352606;26;20242;-71
2024/04/13 04:56:02;;;;;;;6.80;4.97;;;;;;;11.81;100.00;101954.72;5343539;26;20247;-71
2024/04/13 04:58:57;;;;;;;6.27;4.10;;;;;;;11.85;100.00;101961.00;5298250;27;20273;-71
2024/04/13 05:01:33;;;;;;;4.73;3.90;;;;;;;11.90;100.00;101954.81;5281138;27;20255;-71
2024/04/13 05:04:39;;;;;;;8.33;4.40;;;;;;;11.95;100.00;101962.66;5332787;26;20795;-71
2024/04/13 05:07:24;;;;;;;6.90;4.47;;;;;;;11.99;100.00;101969.69;5335243;26;20582;-71
2024/04/13 05:10:17;;;;;;;6.00;4.73;;;;;;;12.07;100.00;101981.41;5323559;26;20232;-71
2024/04/13 05:13:25;;;;;;;5.87;4.83;;;;;;;12.10;100.00;101981.59;5336875;26;20363;-71
2024/04/13 05:19:11;;;;;;;7.37;4.70;;;;;;;12.22;100.00;101979.16;5351702;26;20239;-71
2024/04/13 05:25:33;;;;;;;5.67;4.40;;;;;;;12.34;100.00;101986.56;5327386;26;20244;-71
2024/04/13 05:28:05;;;;;;;6.30;4.37;;;;;;;12.40;100.00;101985.34;5349050;26;20237;-71
2024/04/13 05:36:12;;;;;;;6.67;3.77;;;;;;;12.57;100.00;101994.19;5276168;26;20250;-71
2024/04/13 05:38:50;;;;;;;5.57;4.67;;;;;;;12.63;100.00;101992.97;5336991;26;20841;-71
2024/04/13 05:41:41;;;;;;;5.40;3.90;;;;;;;12.69;100.00;101986.44;5345692;26;20723;-71
2024/04/13 05:44:20;;;;;;;5.93;3.67;;;;;;;12.75;100.00;101989.75;5347432;26;20792;-71
2024/04/13 05:46:54;;;;;;;5.13;3.63;;;;;;;12.80;100.00;101990.41;5349827;26;20729;-72
2024/04/13 05:49:25;;;;;;;3.77;3.30;;;;;;;12.86;100.00;101999.78;5342478;26;20269;-71
2024/04/13 05:52:23;;;;;;;6.10;3.60;;;;;;;12.93;100.00;101997.47;5342484;26;20229;-71
2024/04/13 05:55:09;;;;;;;5.90;3.73;;;;;;;13.02;100.00;102006.28;5351233;26;20632;-71
2024/04/13 05:57:40;;;;;;;3.90;3.37;;;;;;;13.10;100.00;102004.75;5341743;26;20235;-71
2024/04/13 06:00:24;;;;;;;5.40;3.87;;;;;;;13.17;100.00;102013.03;5349582;26;20782;-71
2024/04/13 06:02:57;;;;;;;4.50;3.57;;;;;;;13.25;100.00;102005.09;5343158;26;20293;-71
2024/04/13 06:08:58;;;;;;;4.40;3.60;;;;;;;13.50;100.00;102014.22;5332183;26;20370;-71
2024/04/13 06:11:47;;;;;;;4.50;3.87;;;;;;;13.60;100.00;102011.22;5348081;26;20229;-71
2024/04/13 06:14:30;;;;;;;5.53;3.37;;;;;;;13.73;100.00;102012.97;5338499;26;20299;-71
2024/04/13 06:17:03;;;;;;;5.73;3.73;;;;;;;13.86;100.00;102015.47;5324752;26;20247;-71
2024/04/13 06:19:36;;;;;;;4.83;3.33;;;;;;;13.97;100.00;102005.34;5343961;26;20296;-71
2024/04/13 06:22:04;;;;;;;4.87;3.20;;;;;;;14.10;100.00;102009.69;5343834;26;20314;-72
2024/04/13 06:24:53;;;;;;;3.93;3.10;;;;;;;14.23;100.00;102001.56;5350455;26;20981;-71
2024/04/13 06:33:37;;;;;;;5.13;3.47;;;;;;;14.69;100.00;102004.28;5264101;26;20825;-72
2024/04/13 06:36:48;;;;;;;4.73;4.23;;;;;;;14.84;100.00;102008.28;5344561;26;20720;-72
2024/04/13 06:39:30;;;;;;;3.50;3.20;;;;;;;14.95;100.00;102004.19;5310615;26;20242;-72
2024/04/13 06:42:15;;;;;;;3.83;3.23;;;;;;;15.05;100.00;102003.84;5321757;26;20276;-73
2024/04/13 06:44:49;;;;;;;3.90;2.70;;;;;;;15.14;100.00;102004.56;5342816;26;20259;-73
2024/04/13 06:47:17;;;;;;;4.93;2.90;;;;;;;15.25;100.00;102005.75;5346445;26;20275;-73
2024/04/13 06:49:53;;;;;;;5.00;3.20;;;;;;;15.33;100.00;102005.75;5340885;26;20293;-71
2024/04/13 06:52:21;;;;;;;8.80;3.67;;;;;;;15.47;100.00;102008.94;5347715;26;20281;-72
2024/04/13 06:55:09;;;;;;;;;;;;;;;;;;;;;
2024/04/13 06:57:46;;;;;;;6.17;2.97;;;;;;;15.63;100.00;102015.25;5349960;26;20909;-72
2024/04/13 07:00:34;;;;;;;4.17;2.80;;;;;;;15.68;100.00;102014.28;5346575;26;20630;-72
2024/04/13 07:03:07;;;;;;;4.87;2.90;;;;;;;15.72;100.00;102017.84;5342529;26;20288;-72
2024/04/13 07:05:46;;;;;;;5.63;3.10;;;;;;;15.76;100.00;102006.22;5343494;26;20715;-72
2024/04/13 07:08:16;;;;;;;4.47;3.17;;;;;;;15.78;100.00;102008.56;5349439;26;20237;-71
2024/04/13 07:10:45;;;;;;;6.10;3.00;;;;;;;15.76;100.00;102000.09;5344904;26;20620;-72
2024/04/13 07:13:37;;;;;;;5.33;3.00;;;;;;;15.79;100.00;102010.88;5345377;26;20244;-72
2024/04/13 07:16:12;;;;;;;2.70;2.43;;;;;;;15.82;100.00;102004.13;5343481;26;21020;-72
2024/04/13 07:18:51;;;;;;;3.27;2.87;;;;;;;15.87;100.00;102002.06;5343881;26;20294;-72
2024/04/13 07:21:24;;;;;;;3.37;2.70;;;;;;;15.95;100.00;102003.09;5348548;26;20705;-71
2024/04/13 07:23:58;;;;;;;4.37;2.87;;;;;;;16.03;100.00;102000.34;5312513;26;20269;-71
2024/04/13 07:26:31;;;;;;;3.70;2.97;;;;;;;16.10;100.00;102005.91;5332057;26;20381;-71
2024/04/13 07:29:02;;;;;;;3.47;2.60;;;;;;;16.16;100.00;101998.50;5343102;26;20258;-71
2024/04/13 07:31:31;;;;;;;4.70;2.80;;;;;;;16.22;100.00;101982.00;5350129;26;20639;-71
2024/04/13 07:34:29;;;;;;;5.53;3.20;;;;;;;16.31;100.00;101982.66;5343390;26;20574;-71
2024/04/13 07:37:31;;;;;;;5.33;3.40;;;;;;;16.42;100.00;101975.84;5308839;26;20358;-71
2024/04/13 07:40:17;;;;;;;7.10;3.13;;;;;;;16.51;100.00;101983.75;5340372;26;20335;-71
2024/04/13 07:42:43;;;;;;;4.33;3.07;;;;;;;16.55;100.00;101974.00;5347973;26;20587;-71
2024/04/13 07:45:15;;;;;;;5.93;3.20;;;;;;;16.62;100.00;101966.97;5347714;26;20235;-71
2024/04/13 07:47:50;;;;;;;6.10;3.33;;;;;;;16.72;100.00;101973.78;5342905;26;20728;-71
2024/04/13 07:53:50;;;;;;;6.03;3.23;;;;;;;16.97;100.00;101978.78;5344473;26;20595;-72
2024/04/13 07:56:28;;;;;;;5.80;3.40;;;;;;;17.11;100.00;101976.56;5354390;26;20331;-72
2024/04/13 07:59:16;;;;;;;3.73;3.13;;;;;;;17.32;100.00;101969.19;5344053;26;20246;-72
2024/04/13 08:01:53;;;;;;;6.33;3.30;;;;;;;17.56;100.00;101971.84;5347325;26;20242;-72
2024/04/13 08:04:38;;;;;;;;;;;;;;;;;;;;;
2024/04/13 08:07:50;;;;;;;5.40;3.70;;;;;;;17.90;100.00;101957.91;5340168;26;20235;-72
2024/04/13 08:10:21;;;;;;;5.90;3.77;;;;;;;18.13;100.00;101964.25;5337936;26;20296;-72
2024/04/13 08:12:54;;;;;;;5.07;3.47;;;;;;;18.33;100.00;101967.84;5340183;26;20306;-72
2024/04/13 08:15:28;;;;;;;9.27;3.90;;;;;;;18.47;100.00;101962.88;5349381;26;21090;-72
2024/04/13 08:18:19;;;;;;;6.60;4.03;;;;;;;18.57;100.00;101957.00;5335503;26;20246;-72
2024/04/13 08:21:05;;;;;;;5.90;4.10;;;;;;;18.62;100.00;101954.06;5338941;26;20251;-72
2024/04/13 08:24:05;;;;;;;6.83;4.70;;;;;;;18.68;100.00;101947.31;5342753;26;20258;-72
2024/04/13 08:27:26;;;;;;;7.03;4.47;;;;;;;18.80;100.00;101952.56;5337750;26;20255;-72
2024/04/13 08:30:36;;;;;;;;;;;;;;;;;;;;;
2024/04/13 08:33:51;;;;;;;8.70;4.33;;;;;;;18.88;100.00;101951.63;5332180;26;20250;-72
2024/04/13 08:36:17;;;;;;;7.67;4.60;;;;;;;18.86;100.00;101945.81;5337721;26;20343;-72
2024/04/13 08:39:01;;;;;;;5.57;3.87;;;;;;;18.87;100.00;101942.03;5341586;26;20251;-72
2024/04/13 08:42:31;;;;;;;5.83;4.27;;;;;;;18.94;100.00;101939.53;5340900;26;20289;-72
2024/04/13 08:45:09;;;;;;;4.30;3.90;;;;;;;19.00;100.00;101935.44;5305740;26;20243;-72
2024/04/13 08:47:54;;;;;;;7.17;4.10;;;;;;;19.05;100.00;101941.28;5317698;26;20254;-72
2024/04/13 08:50:36;;;;;;;4.10;3.70;;;;;;;19.08;100.00;101939.81;5339503;26;20258;-72
2024/04/13 08:53:30;;;;;;;5.60;3.97;;;;;;;19.12;100.00;101941.47;5342346;26;20242;-72
2024/04/13 08:56:26;;;;;;;3.53;3.23;;;;;;;19.19;100.00;101938.16;5336152;26;20438;-72
2024/04/13 08:59:07;;;;;;;4.23;3.50;;;;;;;19.29;100.00;101935.72;5351030;26;20237;-72
2024/04/13 09:04:50;;;;;;;3.27;2.90;;;;;;;19.48;100.00;101929.59;5274638;26;20231;-72
2024/04/13 09:10:42;;;;;;;4.57;3.00;;;;;;;19.66;100.00;101938.78;5339057;26;20231;-72
2024/04/13 09:13:07;;;;;;;2.50;2.30;;;;;;;19.77;100.00;101931.72;5343368;26;20805;-72
2024/04/13 09:16:08;;;;;;;2.20;2.00;;;;;;;19.90;100.00;101935.78;5343737;26;20353;-72
2024/04/13 09:18:46;;;;;;;3.13;1.90;;;;;;;19.94;100.00;101937.41;5333885;26;20423;-72
2024/04/13 09:21:23;;;;;;;2.00;1.77;;;;;;;20.02;100.00;101939.09;5330351;26;20230;-72
2024/04/13 09:24:19;;;;;;;2.40;1.63;;;;;;;20.14;100.00;101924.78;5331689;26;20313;-72
2024/04/13 09:26:53;;;;;;;8.97;1.87;;;;;;;20.19;100.00;101922.56;5304568;26;20483;-72
2024/04/13 09:33:01;;;;;;;2.63;1.70;;;;;;;20.43;100.00;101926.81;5251511;27;20245;-72
2024/04/13 09:35:40;;;;;;;2.80;1.47;;;;;;;20.61;100.00;101922.47;5258310;27;20343;-72
2024/04/13 09:38:18;;;;;;;1.83;1.50;;;;;;;20.67;100.00;101926.41;5331971;26;20361;-72
2024/04/13 09:41:16;;;;;;;2.40;1.50;;;;;;;20.72;100.00;101923.41;5340417;26;20343;-72
2024/04/13 09:44:11;;;;;;;2.93;1.67;;;;;;;20.80;100.00;101919.72;5333247;26;20571;-72
2024/04/13 09:46:50;;;;;;;3.10;1.60;;;;;;;20.83;99.14;101914.38;5335605;26;20258;-72
2024/04/13 09:52:57;;;;;;;4.45;1.63;;;;;;;21.08;100.00;101912.84;5281327;26;20235;-72
2024/04/13 09:55:43;;;;;;;1.48;1.35;;;;;;;21.23;97.14;101905.75;5337197;26;21007;-72
2024/04/13 09:58:25;;;;;;;2.75;1.42;;;;;;;21.33;100.00;101888.97;5332720;26;20246;-72
2024/04/13 10:01:18;;;;;;;3.10;1.67;;;;;;;21.35;92.56;101890.16;5363872;26;20631;-72
2024/04/13 10:07:00;;;;;;;1.52;1.20;;;;;;;21.42;89.57;101867.97;5337344;26;20284;-72
2024/04/13 10:09:50;;;;;;;4.85;1.40;;;;;;;21.54;87.30;101881.94;5335617;26;20231;-72
2024/04/13 10:12:32;;;;;;;2.08;1.40;;;;;;;21.59;88.56;101886.97;5336556;26;20336;-72
2024/04/13 10:15:18;;;;;;;2.42;1.30;;;;;;;21.52;80.80;101878.81;5341014;26;20273;-72
2024/04/13 10:18:16;;;;;;;2.05;1.20;;;;;;;21.54;85.21;101883.84;5334196;26;20246;-72
2024/04/13 10:20:57;;;;;;;1.88;1.40;;;;;;;21.56;86.30;101881.53;5336370;26;20298;-73
2024/04/13 10:23:42;;;;;;;5.88;1.40;;;;;;;21.68;82.78;101878.66;5331223;26;20365;-72
2024/04/13 10:26:32;;;;;;;1.30;1.20;;;;;;;21.83;90.73;101873.03;5333880;26;20259;-72
2024/04/13 10:29:59;;;;;;;2.88;1.40;;;;;;;21.98;86.22;101871.25;5310441;26;20276;-72
2024/04/13 10:32:35;;;;;;;1.40;1.30;;;;;;;22.05;73.07;101861.31;5287127;26;20246;-72
2024/04/13 10:35:33;;;;;;;2.35;1.67;;;;;;;22.12;75.41;101860.59;5338379;26;20258;-72
2024/04/13 10:38:21;;;;;;;2.40;1.80;;;;;;;22.13;76.97;101857.56;5340517;26;20285;-72
2024/04/13 10:44:03;;;;;;;3.30;1.70;;;;;;;22.16;72.63;101861.41;5340727;26;21025;-72
2024/04/13 10:46:34;;;;;;;2.35;1.70;;;;;;;22.19;69.44;101847.22;5318559;26;20249;-72
2024/04/13 10:49:09;;;;;;;2.17;1.58;;;;;;;22.16;66.49;101848.75;5344704;26;20288;-72
2024/04/13 10:52:02;;;;;;;3.33;1.50;;;;;;;22.23;69.01;101848.78;5330206;26;20280;-72
2024/04/13 10:54:42;;;;;;;2.72;1.63;;;;;;;22.28;69.09;101851.13;5333104;26;20289;-72
2024/04/13 10:57:15;;;;;;;1.92;1.20;;;;;;;22.28;65.01;101845.75;5355827;26;20245;-72
2024/04/13 10:59:53;;;;;;;2.55;1.35;;;;;;;22.38;67.57;101846.97;5343072;26;20250;-72
2024/04/13 11:02:24;;;;;;;1.52;1.40;;;;;;;22.30;68.50;101840.75;5342464;26;20246;-72
2024/04/13 11:07:43;;;;;;;2.33;1.70;;;;;;;22.27;65.16;101843.44;5349183;26;20248;-72
2024/04/13 11:10:35;;;;;;;3.58;1.70;;;;;;;22.16;65.46;101843.38;5350126;26;20249;-72
2024/04/13 11:16:27;;;;;;;3.10;1.52;;;;;;;22.24;64.81;101834.19;5323775;26;20247;-72
2024/04/13 11:19:07;;;;;;;1.60;1.50;;;;;;;22.19;69.03;101834.53;5195943;27;20254;-71
2024/04/13 11:25:05;;;;;;;3.42;1.80;;;;;;;22.17;63.11;101817.22;5333364;26;20250;-71
2024/04/13 11:27:38;;;;;;;2.72;1.42;;;;;;;22.18;62.07;101813.38;5336331;26;20243;-72
2024/04/13 11:30:41;;;;;;;2.28;1.42;;;;;;;22.07;61.65;101807.94;5341452;26;20603;-72
2024/04/13 11:33:25;;;;;;;4.53;2.00;;;;;;;22.09;64.04;101802.94;5340981;26;20816;-72
2024/04/13 11:36:36;;;;;;;2.22;1.50;;;;;;;22.18;60.87;101797.22;5338668;26;20249;-72
2024/04/13 11:39:25;;;;;;;1.65;1.52;;;;;;;22.33;67.09;101801.56;5330129;26;20247;-72
2024/04/13 11:42:18;;;;;;;3.05;1.40;;;;;;;22.40;64.09;101798.94;5336089;26;20269;-72
2024/04/13 11:45:23;;;;;;;2.33;1.60;;;;;;;22.56;68.15;101800.19;5332084;26;20246;-72
2024/04/13 11:48:32;;;;;;;2.40;1.60;;;;;;;22.72;64.50;101802.59;5305449;26;20243;-72
2024/04/13 11:51:40;;;;;;;3.10;1.77;;;;;;;22.82;64.89;101799.19;5350729;26;20253;-72
2024/04/13 11:54:39;;;;;;;1.65;1.50;;;;;;;22.88;62.09;101793.06;5341864;26;20305;-72
2024/04/13 11:57:31;;;;;;;2.75;1.52;;;;;;;23.07;68.22;101789.28;5337080;26;21014;-72
2024/04/13 12:00:29;;;;;;;1.77;1.58;;;;;;;23.22;66.11;101784.72;5327909;26;20246;-72
2024/04/13 12:02:59;;;;;;;3.15;1.83;;;;;;;23.23;67.41;101782.41;5335049;26;20280;-72
2024/04/13 12:06:14;;;;;;;3.10;1.80;;;;;;;23.27;62.76;101783.19;5338254;26;23632;-72
2024/04/13 12:08:58;;;;;;;1.67;1.50;;;;;;;23.28;64.00;101771.25;5340109;26;20281;-72
2024/04/13 12:11:30;;;;;;;4.32;1.88;;;;;;;23.36;60.68;101779.34;5321679;26;20298;-72
2024/04/13 12:13:55;;;;;;;2.72;1.67;;;;;;;23.37;62.85;101756.63;5340042;26;20376;-72
2024/04/13 12:16:24;;;;;;;2.22;1.70;;;;;;;23.34;60.69;101760.88;5337546;26;20239;-72
2024/04/13 12:18:51;;;;;;;2.67;1.70;;;;;;;23.31;64.92;101758.91;5334851;26;20284;-72
2024/04/13 12:21:21;;;;;;;2.65;1.63;;;;;;;23.27;63.58;101758.91;5343300;26;20293;-72
2024/04/13 12:23:47;;;;;;;1.80;1.42;;;;;;;23.30;63.18;101752.00;5341534;26;20252;-72
2024/04/13 12:26:15;;;;;;;3.10;1.55;;;;;;;23.31;61.90;101750.09;5335542;26;20695;-72
2024/04/13 12:28:41;;;;;;;1.45;1.35;;;;;;;23.19;58.63;101748.50;5340092;26;20332;-72
2024/04/13 12:31:09;;;;;;;4.38;1.80;;;;;;;23.15;60.96;101755.78;5336686;26;20250;-72
2024/04/13 12:33:34;;;;;;;2.97;1.77;;;;;;;23.07;56.94;101744.22;5335658;26;20286;-72
2024/04/13 12:36:06;;;;;;;2.25;1.60;;;;;;;22.99;61.55;101733.81;5302863;26;20250;-72
2024/04/13 12:38:47;;;;;;;2.30;1.73;;;;;;;22.89;59.32;101721.84;5335253;26;20359;-72
2024/04/13 12:41:15;;;;;;;2.40;2.00;;;;;;;22.87;60.71;101715.31;5334456;26;20242;-72
2024/04/13 12:43:40;;;;;;;1.77;1.50;;;;;;;22.92;59.73;101699.53;5337710;26;20318;-71
2024/04/13 12:46:08;;;;;;;2.08;1.42;;;;;;;22.96;63.18;101696.84;5334909;26;20247;-71
2024/04/13 12:48:34;;;;;;;1.90;1.25;;;;;;;22.96;58.60;101689.53;5335847;26;20252;-71
2024/04/13 12:51:02;;;;;;;4.35;1.60;;;;;;;22.97;60.81;101693.78;5333154;26;20292;-72
2024/04/13 12:53:27;;;;;;;1.95;1.60;;;;;;;23.01;58.55;101693.78;5335269;26;20310;-71
2024/04/13 12:55:58;;;;;;;4.65;1.60;;;;;;;23.04;59.43;101691.09;5336500;26;20314;-71
2024/04/13 12:58:24;;;;;;;3.05;2.00;;;;;;;23.11;63.22;101685.72;5331618;26;20258;-71
2024/04/13 13:00:52;;;;;;;3.13;1.45;;;;;;;23.19;61.23;101675.75;5333645;26;20637;-73
2024/04/13 13:03:17;;;;;;;3.50;1.55;;;;;;;23.27;58.56;101679.97;5326908;26;20348;-71
2024/04/13 13:05:45;;;;;;;5.65;1.50;;;;;;;23.34;61.96;101677.31;5334494;26;20744;-71
2024/04/13 13:08:12;;;;;;;1.52;1.40;;;;;;;23.38;58.08;101675.38;5338267;26;20359;-73
2024/04/13 13:10:40;;;;;;;2.75;1.55;;;;;;;23.43;57.86;101664.97;5333374;26;20342;-71
2024/04/13 13:13:08;;;;;;;1.77;1.23;;;;;;;23.42;53.97;101667.28;5334668;26;20889;-72
2024/04/13 13:15:36;;;;;;;1.40;1.30;;;;;;;23.45;56.16;101672.69;5332070;26;20803;-71
2024/04/13 13:18:02;;;;;;;3.20;1.33;;;;;;;23.47;60.35;101670.34;5333401;26;20372;-71
2024/04/13 13:20:30;;;;;;;3.10;1.85;;;;;;;23.48;55.05;101663.81;5335194;26;20283;-71
2024/04/13 13:22:56;;;;;;;7.22;1.50;;;;;;;23.52;58.97;101671.91;5335864;26;20734;-71
2024/04/13 13:25:24;;;;;;;3.65;1.23;;;;;;;23.50;53.87;101658.81;5332091;26;20235;-73
2024/04/13 13:27:49;;;;;;;2.35;1.05;;;;;;;23.49;54.89;101670.75;5332320;26;20931;-72
2024/04/13 13:30:20;;;;;;;3.58;1.38;;;;;;;23.52;58.04;101661.13;5330667;26;20332;-71
2024/04/13 13:32:45;;;;;;;4.28;1.50;;;;;;;23.47;54.31;101653.41;5329987;26;20261;-73
2024/04/13 13:35:14;;;;;;;1.63;1.30;;;;;;;23.47;58.98;101651.47;5334204;26;20236;-71
2024/04/13 13:37:39;;;;;;;2.28;1.27;;;;;;;23.46;56.63;101644.56;5328775;26;20251;-72
2024/04/13 13:40:11;;;;;;;1.15;1.05;;;;;;;23.51;58.62;101641.47;5336783;26;20352;-72
2024/04/13 13:42:36;;;;;;;2.85;1.45;;;;;;;23.50;58.17;101637.25;5335706;26;20246;-72
2024/04/13 13:45:04;;;;;;;2.22;1.30;;;;;;;23.43;53.40;101639.94;5338351;26;20292;-72
2024/04/13 13:47:32;;;;;;;2.00;1.38;;;;;;;23.46;57.04;101628.38;5337234;26;20310;-72
2024/04/13 13:50:00;;;;;;;2.70;1.63;;;;;;;23.49;58.77;101622.22;5333442;26;20281;-72
2024/04/13 13:52:26;;;;;;;2.30;1.33;;;;;;;23.52;59.75;101616.03;5335758;26;20332;-72
2024/04/13 13:54:55;;;;;;;1.60;1.17;;;;;;;23.51;57.92;101619.91;5331834;26;20250;-72
2024/04/13 13:57:20;;;;;;;2.30;1.10;;;;;;;23.53;55.24;101606.78;5329822;26;20253;-72
2024/04/13 13:59:49;;;;;;;2.67;1.30;;;;;;;23.55;56.44;101607.94;5332778;26;20778;-72
2024/04/13 14:02:14;;;;;;;1.63;1.52;;;;;;;23.46;54.46;101614.16;5334701;26;20296;-72
2024/04/13 14:04:47;;;;;;;2.17;1.50;;;;;;;23.38;57.19;101608.00;5370248;26;20255;-72
2024/04/13 14:07:13;;;;;;;1.98;1.30;;;;;;;23.37;54.89;101600.28;5343998;26;20254;-72
2024/04/13 14:09:41;;;;;;;2.30;1.23;;;;;;;23.38;56.10;101599.13;5341385;26;20332;-72
2024/04/13 14:12:07;;;;;;;2.38;1.48;;;;;;;23.38;56.05;101604.50;5355951;26;20631;-72
2024/04/13 14:14:35;;;;;;;2.92;1.38;;;;;;;23.39;55.84;101599.50;5344459;26;21110;-72
2024/04/13 14:17:01;;;;;;;2.63;1.33;;;;;;;23.38;55.40;101597.22;5341857;26;20954;-72
2024/04/13 14:19:29;;;;;;;1.73;1.15;;;;;;;23.38;59.03;101595.25;5346407;26;20270;-72
2024/04/13 14:21:57;;;;;;;10.27;1.48;;;;;;;23.36;53.83;101594.09;5341854;26;20347;-72